sensor_id;sensor_type;location;lat;lon;timestamp;P1;durP1;ratioP1;P2;durP2;ratioP2
13122;SDS011;6627;50.920;12.050;2023-07-09T00:00:47;8.47;;;6.80;;
13122;SDS011;6627;50.920;12.050;2023-07-09T00:03:15;8.73;;;7.07;;
13122;SDS011;6627;50.920;12.050;2023-07-09T00:05:45;8.97;;;7.03;;
13122;SDS011;6627;50.920;12.050;2023-07-09T00:08:21;13.10;;;7.00;;
13122;SDS011;6627;50.920;12.050;2023-07-09T00:10:54;8.33;;;6.97;;
13122;SDS011;6627;50.920;12.050;2023-07-09T00:13:24;8.73;;;6.43;;
13122;SDS011;6627;50.920;12.050;2023-07-09T00:15:55;9.90;;;6.57;;
13122;SDS011;6627;50.920;12.050;2023-07-09T00:18:27;8.40;;;6.90;;
13122;SDS011;6627;50.920;12.050;2023-07-09T00:20:55;7.50;;;6.50;;
13122;SDS011;6627;50.920;12.050;2023-07-09T00:23:24;7.97;;;6.90;;
13122;SDS011;6627;50.920;12.050;2023-07-09T00:25:53;9.20;;;7.30;;
13122;SDS011;6627;50.920;12.050;2023-07-09T00:28:20;9.20;;;6.77;;
13122;SDS011;6627;50.920;12.050;2023-07-09T00:30:51;9.90;;;7.87;;
13122;SDS011;6627;50.920;12.050;2023-07-09T00:33:18;11.77;;;7.53;;
13122;SDS011;6627;50.920;12.050;2023-07-09T00:35:46;10.13;;;7.73;;
13122;SDS011;6627;50.920;12.050;2023-07-09T00:38:17;7.97;;;7.13;;
13122;SDS011;6627;50.920;12.050;2023-07-09T00:40:47;9.23;;;7.60;;
13122;SDS011;6627;50.920;12.050;2023-07-09T00:43:29;7.53;;;6.83;;
13122;SDS011;6627;50.920;12.050;2023-07-09T00:46:13;10.93;;;7.00;;
13122;SDS011;6627;50.920;12.050;2023-07-09T00:48:59;8.67;;;7.53;;
13122;SDS011;6627;50.920;12.050;2023-07-09T00:51:31;10.17;;;8.00;;
13122;SDS011;6627;50.920;12.050;2023-07-09T00:54:06;10.43;;;7.60;;
13122;SDS011;6627;50.920;12.050;2023-07-09T00:56:40;8.80;;;7.30;;
13122;SDS011;6627;50.920;12.050;2023-07-09T00:59:13;8.53;;;7.27;;
13122;SDS011;6627;50.920;12.050;2023-07-09T01:01:48;9.07;;;7.27;;
13122;SDS011;6627;50.920;12.050;2023-07-09T01:04:17;7.83;;;6.90;;
13122;SDS011;6627;50.920;12.050;2023-07-09T01:06:50;10.50;;;7.10;;
13122;SDS011;6627;50.920;12.050;2023-07-09T01:09:20;7.83;;;7.03;;
13122;SDS011;6627;50.920;12.050;2023-07-09T01:15:48;9.00;;;8.07;;
13122;SDS011;6627;50.920;12.050;2023-07-09T01:18:17;9.33;;;7.20;;
13122;SDS011;6627;50.920;12.050;2023-07-09T01:20:47;9.10;;;7.57;;
13122;SDS011;6627;50.920;12.050;2023-07-09T01:23:16;10.67;;;7.17;;
13122;SDS011;6627;50.920;12.050;2023-07-09T01:25:44;8.37;;;7.50;;
13122;SDS011;6627;50.920;12.050;2023-07-09T01:28:18;10.40;;;7.37;;
13122;SDS011;6627;50.920;12.050;2023-07-09T01:30:46;11.87;;;7.43;;
13122;SDS011;6627;50.920;12.050;2023-07-09T01:33:20;7.93;;;7.13;;
13122;SDS011;6627;50.920;12.050;2023-07-09T01:35:48;10.23;;;7.87;;
13122;SDS011;6627;50.920;12.050;2023-07-09T01:38:19;12.37;;;7.57;;
13122;SDS011;6627;50.920;12.050;2023-07-09T01:40:47;12.90;;;8.23;;
13122;SDS011;6627;50.920;12.050;2023-07-09T01:43:14;11.80;;;8.50;;
13122;SDS011;6627;50.920;12.050;2023-07-09T01:45:41;13.10;;;8.07;;
13122;SDS011;6627;50.920;12.050;2023-07-09T01:48:08;7.83;;;6.83;;
13122;SDS011;6627;50.920;12.050;2023-07-09T01:50:39;11.27;;;7.53;;
13122;SDS011;6627;50.920;12.050;2023-07-09T01:53:07;8.67;;;7.77;;
13122;SDS011;6627;50.920;12.050;2023-07-09T01:55:37;8.70;;;7.30;;
13122;SDS011;6627;50.920;12.050;2023-07-09T01:58:04;9.63;;;7.90;;
13122;SDS011;6627;50.920;12.050;2023-07-09T02:00:32;8.57;;;7.63;;
13122;SDS011;6627;50.920;12.050;2023-07-09T02:03:01;11.60;;;8.00;;
13122;SDS011;6627;50.920;12.050;2023-07-09T02:05:30;11.53;;;7.77;;
13122;SDS011;6627;50.920;12.050;2023-07-09T02:07:59;11.17;;;7.13;;
13122;SDS011;6627;50.920;12.050;2023-07-09T02:10:26;7.83;;;7.13;;
13122;SDS011;6627;50.920;12.050;2023-07-09T02:12:55;8.30;;;7.50;;
13122;SDS011;6627;50.920;12.050;2023-07-09T02:15:22;8.33;;;7.50;;
13122;SDS011;6627;50.920;12.050;2023-07-09T02:17:49;10.47;;;7.77;;
13122;SDS011;6627;50.920;12.050;2023-07-09T02:20:17;8.40;;;7.50;;
13122;SDS011;6627;50.920;12.050;2023-07-09T02:22:45;9.10;;;8.07;;
13122;SDS011;6627;50.920;12.050;2023-07-09T02:25:14;9.57;;;8.30;;
13122;SDS011;6627;50.920;12.050;2023-07-09T02:27:41;9.33;;;8.30;;
13122;SDS011;6627;50.920;12.050;2023-07-09T02:30:10;9.17;;;8.13;;
13122;SDS011;6627;50.920;12.050;2023-07-09T02:32:37;8.87;;;7.97;;
13122;SDS011;6627;50.920;12.050;2023-07-09T02:35:05;9.40;;;8.17;;
13122;SDS011;6627;50.920;12.050;2023-07-09T02:37:33;9.80;;;8.27;;
13122;SDS011;6627;50.920;12.050;2023-07-09T02:40:00;10.57;;;7.70;;
13122;SDS011;6627;50.920;12.050;2023-07-09T02:42:27;8.90;;;7.97;;
13122;SDS011;6627;50.920;12.050;2023-07-09T02:44:54;9.93;;;7.90;;
13122;SDS011;6627;50.920;12.050;2023-07-09T02:47:23;8.70;;;7.80;;
13122;SDS011;6627;50.920;12.050;2023-07-09T02:49:50;10.70;;;7.70;;
13122;SDS011;6627;50.920;12.050;2023-07-09T02:52:17;8.93;;;8.07;;
13122;SDS011;6627;50.920;12.050;2023-07-09T02:54:44;9.00;;;7.53;;
13122;SDS011;6627;50.920;12.050;2023-07-09T02:57:11;7.90;;;6.97;;
13122;SDS011;6627;50.920;12.050;2023-07-09T02:59:38;8.80;;;7.90;;
13122;SDS011;6627;50.920;12.050;2023-07-09T03:02:06;12.70;;;7.83;;
13122;SDS011;6627;50.920;12.050;2023-07-09T03:04:34;8.60;;;7.27;;
13122;SDS011;6627;50.920;12.050;2023-07-09T03:07:02;8.57;;;7.60;;
13122;SDS011;6627;50.920;12.050;2023-07-09T03:09:29;9.80;;;8.60;;
13122;SDS011;6627;50.920;12.050;2023-07-09T03:11:57;10.03;;;7.70;;
13122;SDS011;6627;50.920;12.050;2023-07-09T03:14:24;9.00;;;7.40;;
13122;SDS011;6627;50.920;12.050;2023-07-09T03:16:51;8.50;;;7.57;;
13122;SDS011;6627;50.920;12.050;2023-07-09T03:19:19;9.17;;;7.67;;
13122;SDS011;6627;50.920;12.050;2023-07-09T03:21:48;9.03;;;8.10;;
13122;SDS011;6627;50.920;12.050;2023-07-09T03:24:15;10.67;;;8.10;;
13122;SDS011;6627;50.920;12.050;2023-07-09T03:26:44;9.03;;;7.93;;
13122;SDS011;6627;50.920;12.050;2023-07-09T03:29:11;8.93;;;7.77;;
13122;SDS011;6627;50.920;12.050;2023-07-09T03:31:39;8.47;;;7.57;;
13122;SDS011;6627;50.920;12.050;2023-07-09T03:34:06;9.03;;;7.53;;
13122;SDS011;6627;50.920;12.050;2023-07-09T03:36:33;8.27;;;7.43;;
13122;SDS011;6627;50.920;12.050;2023-07-09T03:39:04;11.03;;;7.90;;
13122;SDS011;6627;50.920;12.050;2023-07-09T03:41:31;8.70;;;7.83;;
13122;SDS011;6627;50.920;12.050;2023-07-09T03:43:59;9.23;;;7.70;;
13122;SDS011;6627;50.920;12.050;2023-07-09T03:46:26;8.83;;;7.93;;
13122;SDS011;6627;50.920;12.050;2023-07-09T03:48:53;9.07;;;7.03;;
13122;SDS011;6627;50.920;12.050;2023-07-09T03:51:21;10.07;;;7.83;;
13122;SDS011;6627;50.920;12.050;2023-07-09T03:53:48;9.10;;;7.90;;
13122;SDS011;6627;50.920;12.050;2023-07-09T03:56:17;9.97;;;7.73;;
13122;SDS011;6627;50.920;12.050;2023-07-09T03:58:44;11.63;;;7.20;;
13122;SDS011;6627;50.920;12.050;2023-07-09T04:01:11;9.03;;;7.77;;
13122;SDS011;6627;50.920;12.050;2023-07-09T04:03:38;9.80;;;7.57;;
13122;SDS011;6627;50.920;12.050;2023-07-09T04:06:06;10.90;;;7.67;;
13122;SDS011;6627;50.920;12.050;2023-07-09T04:08:33;10.13;;;8.07;;
13122;SDS011;6627;50.920;12.050;2023-07-09T04:11:01;9.20;;;7.70;;
13122;SDS011;6627;50.920;12.050;2023-07-09T04:13:31;11.23;;;7.93;;
13122;SDS011;6627;50.920;12.050;2023-07-09T04:15:58;8.93;;;8.10;;
13122;SDS011;6627;50.920;12.050;2023-07-09T04:18:25;8.43;;;7.60;;
13122;SDS011;6627;50.920;12.050;2023-07-09T04:20:52;9.70;;;7.60;;
13122;SDS011;6627;50.920;12.050;2023-07-09T04:23:19;10.33;;;8.10;;
13122;SDS011;6627;50.920;12.050;2023-07-09T04:25:47;8.67;;;7.50;;
13122;SDS011;6627;50.920;12.050;2023-07-09T04:28:14;8.83;;;7.87;;
13122;SDS011;6627;50.920;12.050;2023-07-09T04:30:46;9.10;;;8.20;;
13122;SDS011;6627;50.920;12.050;2023-07-09T04:33:14;8.57;;;7.60;;
13122;SDS011;6627;50.920;12.050;2023-07-09T04:35:44;8.60;;;7.60;;
13122;SDS011;6627;50.920;12.050;2023-07-09T04:38:12;10.83;;;8.10;;
13122;SDS011;6627;50.920;12.050;2023-07-09T04:40:39;11.00;;;7.90;;
13122;SDS011;6627;50.920;12.050;2023-07-09T04:43:07;8.50;;;7.70;;
13122;SDS011;6627;50.920;12.050;2023-07-09T04:45:34;10.47;;;7.40;;
13122;SDS011;6627;50.920;12.050;2023-07-09T04:48:03;9.37;;;7.20;;
13122;SDS011;6627;50.920;12.050;2023-07-09T04:50:31;10.83;;;8.13;;
13122;SDS011;6627;50.920;12.050;2023-07-09T04:52:58;8.30;;;7.50;;
13122;SDS011;6627;50.920;12.050;2023-07-09T04:55:26;11.60;;;7.97;;
13122;SDS011;6627;50.920;12.050;2023-07-09T04:57:53;9.47;;;8.20;;
13122;SDS011;6627;50.920;12.050;2023-07-09T05:00:21;12.87;;;7.57;;
13122;SDS011;6627;50.920;12.050;2023-07-09T05:02:48;8.60;;;7.70;;
13122;SDS011;6627;50.920;12.050;2023-07-09T05:05:17;10.00;;;7.97;;
13122;SDS011;6627;50.920;12.050;2023-07-09T05:07:44;10.53;;;7.53;;
13122;SDS011;6627;50.920;12.050;2023-07-09T05:10:12;10.57;;;7.87;;
13122;SDS011;6627;50.920;12.050;2023-07-09T05:12:49;11.77;;;8.30;;
13122;SDS011;6627;50.920;12.050;2023-07-09T05:15:18;9.27;;;7.70;;
13122;SDS011;6627;50.920;12.050;2023-07-09T05:17:49;8.10;;;7.20;;
13122;SDS011;6627;50.920;12.050;2023-07-09T05:20:19;8.17;;;7.37;;
13122;SDS011;6627;50.920;12.050;2023-07-09T05:22:46;8.27;;;7.47;;
13122;SDS011;6627;50.920;12.050;2023-07-09T05:25:14;7.77;;;6.90;;
13122;SDS011;6627;50.920;12.050;2023-07-09T05:27:41;8.67;;;7.73;;
13122;SDS011;6627;50.920;12.050;2023-07-09T05:30:09;7.47;;;6.70;;
13122;SDS011;6627;50.920;12.050;2023-07-09T05:32:37;7.70;;;6.90;;
13122;SDS011;6627;50.920;12.050;2023-07-09T05:35:05;8.63;;;7.70;;
13122;SDS011;6627;50.920;12.050;2023-07-09T05:37:35;8.50;;;7.23;;
13122;SDS011;6627;50.920;12.050;2023-07-09T05:40:03;7.83;;;7.10;;
13122;SDS011;6627;50.920;12.050;2023-07-09T05:42:33;10.80;;;6.93;;
13122;SDS011;6627;50.920;12.050;2023-07-09T05:45:00;8.63;;;6.93;;
13122;SDS011;6627;50.920;12.050;2023-07-09T05:47:27;7.33;;;6.63;;
13122;SDS011;6627;50.920;12.050;2023-07-09T05:49:54;7.67;;;6.07;;
13122;SDS011;6627;50.920;12.050;2023-07-09T05:52:22;10.67;;;6.80;;
13122;SDS011;6627;50.920;12.050;2023-07-09T05:54:51;7.13;;;6.43;;
13122;SDS011;6627;50.920;12.050;2023-07-09T05:57:18;8.90;;;6.77;;
13122;SDS011;6627;50.920;12.050;2023-07-09T05:59:46;8.80;;;6.83;;
13122;SDS011;6627;50.920;12.050;2023-07-09T06:02:15;7.33;;;6.40;;
13122;SDS011;6627;50.920;12.050;2023-07-09T06:04:46;7.93;;;6.47;;
13122;SDS011;6627;50.920;12.050;2023-07-09T06:07:15;8.20;;;6.20;;
13122;SDS011;6627;50.920;12.050;2023-07-09T06:09:43;7.43;;;6.73;;
13122;SDS011;6627;50.920;12.050;2023-07-09T06:12:13;6.80;;;6.20;;
13122;SDS011;6627;50.920;12.050;2023-07-09T06:14:41;7.57;;;6.20;;
13122;SDS011;6627;50.920;12.050;2023-07-09T06:17:08;6.67;;;5.90;;
13122;SDS011;6627;50.920;12.050;2023-07-09T06:19:36;8.60;;;6.33;;
13122;SDS011;6627;50.920;12.050;2023-07-09T06:22:04;6.87;;;6.17;;
13122;SDS011;6627;50.920;12.050;2023-07-09T06:24:31;6.40;;;5.80;;
13122;SDS011;6627;50.920;12.050;2023-07-09T06:26:58;7.60;;;6.03;;
13122;SDS011;6627;50.920;12.050;2023-07-09T06:29:27;6.87;;;6.00;;
13122;SDS011;6627;50.920;12.050;2023-07-09T06:31:54;6.50;;;5.90;;
13122;SDS011;6627;50.920;12.050;2023-07-09T06:34:22;6.47;;;5.87;;
13122;SDS011;6627;50.920;12.050;2023-07-09T06:36:49;6.07;;;5.47;;
13122;SDS011;6627;50.920;12.050;2023-07-09T06:39:17;6.60;;;5.97;;
13122;SDS011;6627;50.920;12.050;2023-07-09T06:41:45;6.50;;;5.80;;
13122;SDS011;6627;50.920;12.050;2023-07-09T06:44:12;8.33;;;6.20;;
13122;SDS011;6627;50.920;12.050;2023-07-09T06:46:41;7.20;;;5.77;;
13122;SDS011;6627;50.920;12.050;2023-07-09T06:49:10;8.43;;;5.70;;
13122;SDS011;6627;50.920;12.050;2023-07-09T06:51:37;6.60;;;6.00;;
13122;SDS011;6627;50.920;12.050;2023-07-09T06:54:04;6.03;;;5.40;;
13122;SDS011;6627;50.920;12.050;2023-07-09T06:56:34;6.53;;;5.83;;
13122;SDS011;6627;50.920;12.050;2023-07-09T06:59:01;6.47;;;5.30;;
13122;SDS011;6627;50.920;12.050;2023-07-09T07:01:29;6.67;;;5.97;;
13122;SDS011;6627;50.920;12.050;2023-07-09T07:03:58;6.90;;;5.67;;
13122;SDS011;6627;50.920;12.050;2023-07-09T07:06:25;6.60;;;5.97;;
13122;SDS011;6627;50.920;12.050;2023-07-09T07:08:53;6.13;;;5.53;;
13122;SDS011;6627;50.920;12.050;2023-07-09T07:11:20;6.83;;;5.90;;
13122;SDS011;6627;50.920;12.050;2023-07-09T07:13:47;5.83;;;5.33;;
13122;SDS011;6627;50.920;12.050;2023-07-09T07:16:17;6.37;;;5.70;;
13122;SDS011;6627;50.920;12.050;2023-07-09T07:18:44;6.63;;;5.87;;
13122;SDS011;6627;50.920;12.050;2023-07-09T07:21:13;6.73;;;5.83;;
13122;SDS011;6627;50.920;12.050;2023-07-09T07:23:40;7.13;;;5.67;;
13122;SDS011;6627;50.920;12.050;2023-07-09T07:26:07;6.60;;;5.63;;
13122;SDS011;6627;50.920;12.050;2023-07-09T07:28:35;6.23;;;5.37;;
13122;SDS011;6627;50.920;12.050;2023-07-09T07:31:04;6.70;;;6.00;;
13122;SDS011;6627;50.920;12.050;2023-07-09T07:33:33;6.97;;;5.60;;
13122;SDS011;6627;50.920;12.050;2023-07-09T07:36:03;7.17;;;5.90;;
13122;SDS011;6627;50.920;12.050;2023-07-09T07:38:32;9.73;;;6.10;;
13122;SDS011;6627;50.920;12.050;2023-07-09T07:40:59;6.53;;;5.93;;
13122;SDS011;6627;50.920;12.050;2023-07-09T07:43:27;7.53;;;6.13;;
13122;SDS011;6627;50.920;12.050;2023-07-09T07:45:54;8.83;;;5.90;;
13122;SDS011;6627;50.920;12.050;2023-07-09T07:48:22;9.67;;;6.17;;
13122;SDS011;6627;50.920;12.050;2023-07-09T07:50:49;8.32;;;5.95;;
13122;SDS011;6627;50.920;12.050;2023-07-09T07:53:17;8.52;;;6.15;;
13122;SDS011;6627;50.920;12.050;2023-07-09T07:55:45;7.55;;;6.03;;
13122;SDS011;6627;50.920;12.050;2023-07-09T07:58:12;8.47;;;5.87;;
13122;SDS011;6627;50.920;12.050;2023-07-09T08:00:40;6.45;;;5.85;;
13122;SDS011;6627;50.920;12.050;2023-07-09T08:03:07;6.22;;;5.68;;
13122;SDS011;6627;50.920;12.050;2023-07-09T08:05:34;7.70;;;6.05;;
13122;SDS011;6627;50.920;12.050;2023-07-09T08:08:02;8.25;;;6.05;;
13122;SDS011;6627;50.920;12.050;2023-07-09T08:10:29;6.35;;;5.78;;
13122;SDS011;6627;50.920;12.050;2023-07-09T08:12:58;7.15;;;6.45;;
13122;SDS011;6627;50.920;12.050;2023-07-09T08:15:25;6.82;;;5.93;;
13122;SDS011;6627;50.920;12.050;2023-07-09T08:17:54;7.30;;;6.35;;
13122;SDS011;6627;50.920;12.050;2023-07-09T08:20:21;7.38;;;5.88;;
13122;SDS011;6627;50.920;12.050;2023-07-09T08:22:48;7.80;;;6.10;;
13122;SDS011;6627;50.920;12.050;2023-07-09T08:25:15;7.88;;;5.45;;
13122;SDS011;6627;50.920;12.050;2023-07-09T08:27:43;6.57;;;5.97;;
13122;SDS011;6627;50.920;12.050;2023-07-09T08:30:12;10.52;;;6.05;;
13122;SDS011;6627;50.920;12.050;2023-07-09T08:32:39;6.40;;;5.80;;
13122;SDS011;6627;50.920;12.050;2023-07-09T08:35:06;6.00;;;5.40;;
13122;SDS011;6627;50.920;12.050;2023-07-09T08:37:35;6.55;;;5.68;;
13122;SDS011;6627;50.920;12.050;2023-07-09T08:40:03;9.18;;;5.32;;
13122;SDS011;6627;50.920;12.050;2023-07-09T08:42:36;6.45;;;5.50;;
13122;SDS011;6627;50.920;12.050;2023-07-09T08:45:15;7.53;;;5.75;;
13122;SDS011;6627;50.920;12.050;2023-07-09T08:47:56;6.38;;;5.68;;
13122;SDS011;6627;50.920;12.050;2023-07-09T08:50:32;6.40;;;5.72;;
13122;SDS011;6627;50.920;12.050;2023-07-09T08:53:04;6.13;;;5.38;;
13122;SDS011;6627;50.920;12.050;2023-07-09T08:55:40;8.07;;;5.65;;
13122;SDS011;6627;50.920;12.050;2023-07-09T08:58:10;5.97;;;5.40;;
13122;SDS011;6627;50.920;12.050;2023-07-09T09:00:47;7.15;;;5.72;;
13122;SDS011;6627;50.920;12.050;2023-07-09T09:03:26;6.72;;;5.80;;
13122;SDS011;6627;50.920;12.050;2023-07-09T09:06:01;7.18;;;5.35;;
13122;SDS011;6627;50.920;12.050;2023-07-09T09:08:33;5.93;;;5.40;;
13122;SDS011;6627;50.920;12.050;2023-07-09T09:11:10;5.22;;;4.72;;
13122;SDS011;6627;50.920;12.050;2023-07-09T09:13:47;6.00;;;4.53;;
13122;SDS011;6627;50.920;12.050;2023-07-09T09:16:24;7.78;;;4.53;;
13122;SDS011;6627;50.920;12.050;2023-07-09T09:18:55;5.05;;;4.53;;
13122;SDS011;6627;50.920;12.050;2023-07-09T09:21:29;7.80;;;4.40;;
13122;SDS011;6627;50.920;12.050;2023-07-09T09:24:05;7.30;;;4.75;;
13122;SDS011;6627;50.920;12.050;2023-07-09T09:26:42;5.45;;;4.43;;
13122;SDS011;6627;50.920;12.050;2023-07-09T09:29:11;7.47;;;4.72;;
13122;SDS011;6627;50.920;12.050;2023-07-09T09:31:42;6.22;;;4.38;;
13122;SDS011;6627;50.920;12.050;2023-07-09T09:34:18;6.57;;;4.03;;
13122;SDS011;6627;50.920;12.050;2023-07-09T09:36:48;5.72;;;4.63;;
13122;SDS011;6627;50.920;12.050;2023-07-09T09:39:16;5.32;;;4.45;;
13122;SDS011;6627;50.920;12.050;2023-07-09T09:41:44;5.60;;;4.75;;
13122;SDS011;6627;50.920;12.050;2023-07-09T09:44:19;7.25;;;4.35;;
13122;SDS011;6627;50.920;12.050;2023-07-09T09:46:52;6.78;;;4.20;;
13122;SDS011;6627;50.920;12.050;2023-07-09T09:49:23;4.93;;;3.95;;
13122;SDS011;6627;50.920;12.050;2023-07-09T09:51:50;6.63;;;4.70;;
13122;SDS011;6627;50.920;12.050;2023-07-09T09:54:24;5.72;;;4.13;;
13122;SDS011;6627;50.920;12.050;2023-07-09T09:56:56;5.82;;;4.63;;
13122;SDS011;6627;50.920;12.050;2023-07-09T09:59:24;5.25;;;4.50;;
13122;SDS011;6627;50.920;12.050;2023-07-09T10:01:59;6.55;;;4.13;;
13122;SDS011;6627;50.920;12.050;2023-07-09T10:04:29;5.35;;;4.22;;
13122;SDS011;6627;50.920;12.050;2023-07-09T10:06:57;6.15;;;4.32;;
13122;SDS011;6627;50.920;12.050;2023-07-09T10:09:38;10.18;;;4.90;;
13122;SDS011;6627;50.920;12.050;2023-07-09T10:12:13;5.13;;;4.72;;
13122;SDS011;6627;50.920;12.050;2023-07-09T10:15:05;5.78;;;4.40;;
13122;SDS011;6627;50.920;12.050;2023-07-09T10:17:51;6.93;;;4.85;;
13122;SDS011;6627;50.920;12.050;2023-07-09T10:20:30;4.97;;;4.47;;
13122;SDS011;6627;50.920;12.050;2023-07-09T10:23:07;6.38;;;4.50;;
13122;SDS011;6627;50.920;12.050;2023-07-09T10:25:51;4.78;;;4.10;;
13122;SDS011;6627;50.920;12.050;2023-07-09T10:28:32;5.00;;;4.50;;
13122;SDS011;6627;50.920;12.050;2023-07-09T10:31:29;5.05;;;4.55;;
13122;SDS011;6627;50.920;12.050;2023-07-09T10:37:17;4.40;;;4.00;;
13122;SDS011;6627;50.920;12.050;2023-07-09T10:40:21;6.55;;;4.70;;
13122;SDS011;6627;50.920;12.050;2023-07-09T10:42:58;6.70;;;4.13;;
13122;SDS011;6627;50.920;12.050;2023-07-09T10:45:29;5.43;;;4.28;;
13122;SDS011;6627;50.920;12.050;2023-07-09T10:48:04;5.07;;;4.35;;
13122;SDS011;6627;50.920;12.050;2023-07-09T10:50:41;6.45;;;4.32;;
13122;SDS011;6627;50.920;12.050;2023-07-09T10:53:18;5.35;;;4.57;;
13122;SDS011;6627;50.920;12.050;2023-07-09T10:55:59;6.90;;;4.40;;
13122;SDS011;6627;50.920;12.050;2023-07-09T10:58:34;4.57;;;4.18;;
13122;SDS011;6627;50.920;12.050;2023-07-09T11:01:08;7.03;;;3.63;;
13122;SDS011;6627;50.920;12.050;2023-07-09T11:03:40;6.47;;;4.32;;
13122;SDS011;6627;50.920;12.050;2023-07-09T11:06:16;5.88;;;4.55;;
13122;SDS011;6627;50.920;12.050;2023-07-09T11:08:48;5.22;;;4.53;;
13122;SDS011;6627;50.920;12.050;2023-07-09T11:11:23;5.30;;;4.07;;
13122;SDS011;6627;50.920;12.050;2023-07-09T11:14:00;7.22;;;4.55;;
13122;SDS011;6627;50.920;12.050;2023-07-09T11:16:37;6.00;;;4.50;;
13122;SDS011;6627;50.920;12.050;2023-07-09T11:19:13;5.05;;;4.55;;
13122;SDS011;6627;50.920;12.050;2023-07-09T11:21:58;10.90;;;4.45;;
13122;SDS011;6627;50.920;12.050;2023-07-09T11:24:31;6.00;;;4.43;;
13122;SDS011;6627;50.920;12.050;2023-07-09T11:27:01;5.10;;;4.38;;
13122;SDS011;6627;50.920;12.050;2023-07-09T11:29:29;5.97;;;4.53;;
13122;SDS011;6627;50.920;12.050;2023-07-09T11:32:07;6.75;;;4.82;;
13122;SDS011;6627;50.920;12.050;2023-07-09T11:34:44;5.68;;;5.03;;
13122;SDS011;6627;50.920;12.050;2023-07-09T11:37:14;4.72;;;4.32;;
13122;SDS011;6627;50.920;12.050;2023-07-09T11:39:43;6.88;;;4.70;;
13122;SDS011;6627;50.920;12.050;2023-07-09T11:42:26;5.43;;;4.88;;
13122;SDS011;6627;50.920;12.050;2023-07-09T11:44:58;4.32;;;3.92;;
13122;SDS011;6627;50.920;12.050;2023-07-09T11:47:36;5.20;;;4.55;;
13122;SDS011;6627;50.920;12.050;2023-07-09T11:50:10;6.20;;;4.50;;
13122;SDS011;6627;50.920;12.050;2023-07-09T11:52:50;6.30;;;4.85;;
13122;SDS011;6627;50.920;12.050;2023-07-09T11:55:24;5.22;;;4.40;;
13122;SDS011;6627;50.920;12.050;2023-07-09T11:57:55;6.75;;;4.90;;
13122;SDS011;6627;50.920;12.050;2023-07-09T12:00:24;6.25;;;4.68;;
13122;SDS011;6627;50.920;12.050;2023-07-09T12:02:56;4.95;;;4.45;;
13122;SDS011;6627;50.920;12.050;2023-07-09T12:05:25;5.15;;;4.65;;
13122;SDS011;6627;50.920;12.050;2023-07-09T12:07:56;5.18;;;4.68;;
13122;SDS011;6627;50.920;12.050;2023-07-09T12:10:26;6.20;;;4.68;;
13122;SDS011;6627;50.920;12.050;2023-07-09T12:13:00;6.25;;;4.82;;
13122;SDS011;6627;50.920;12.050;2023-07-09T12:15:29;5.43;;;4.95;;
13122;SDS011;6627;50.920;12.050;2023-07-09T12:17:58;5.32;;;4.63;;
13122;SDS011;6627;50.920;12.050;2023-07-09T12:20:30;5.30;;;4.20;;
13122;SDS011;6627;50.920;12.050;2023-07-09T12:23:10;5.32;;;4.43;;
13122;SDS011;6627;50.920;12.050;2023-07-09T12:25:46;5.45;;;4.82;;
13122;SDS011;6627;50.920;12.050;2023-07-09T12:28:15;7.47;;;4.90;;
13122;SDS011;6627;50.920;12.050;2023-07-09T12:30:44;6.07;;;4.97;;
13122;SDS011;6627;50.920;12.050;2023-07-09T12:33:15;7.53;;;5.13;;
13122;SDS011;6627;50.920;12.050;2023-07-09T12:35:43;7.75;;;4.65;;
13122;SDS011;6627;50.920;12.050;2023-07-09T12:38:17;5.18;;;4.68;;
13122;SDS011;6627;50.920;12.050;2023-07-09T12:40:47;6.43;;;4.60;;
13122;SDS011;6627;50.920;12.050;2023-07-09T12:43:17;7.65;;;5.07;;
13122;SDS011;6627;50.920;12.050;2023-07-09T12:45:51;6.75;;;4.88;;
13122;SDS011;6627;50.920;12.050;2023-07-09T12:48:20;5.55;;;4.50;;
13122;SDS011;6627;50.920;12.050;2023-07-09T12:50:54;4.80;;;4.40;;
13122;SDS011;6627;50.920;12.050;2023-07-09T12:53:25;6.95;;;4.47;;
13122;SDS011;6627;50.920;12.050;2023-07-09T12:55:56;6.28;;;4.95;;
13122;SDS011;6627;50.920;12.050;2023-07-09T12:58:26;6.78;;;4.85;;
13122;SDS011;6627;50.920;12.050;2023-07-09T13:00:57;6.93;;;4.60;;
13122;SDS011;6627;50.920;12.050;2023-07-09T13:03:32;5.82;;;5.22;;
13122;SDS011;6627;50.920;12.050;2023-07-09T13:06:02;5.90;;;4.57;;
13122;SDS011;6627;50.920;12.050;2023-07-09T13:08:39;5.82;;;4.95;;
13122;SDS011;6627;50.920;12.050;2023-07-09T13:11:14;8.68;;;5.18;;
13122;SDS011;6627;50.920;12.050;2023-07-09T13:13:53;6.75;;;4.43;;
13122;SDS011;6627;50.920;12.050;2023-07-09T13:16:23;5.18;;;4.65;;
13122;SDS011;6627;50.920;12.050;2023-07-09T13:18:51;5.85;;;4.82;;
13122;SDS011;6627;50.920;12.050;2023-07-09T13:21:19;5.20;;;4.70;;
13122;SDS011;6627;50.920;12.050;2023-07-09T13:23:49;5.70;;;5.10;;
13122;SDS011;6627;50.920;12.050;2023-07-09T13:26:19;7.78;;;4.80;;
13122;SDS011;6627;50.920;12.050;2023-07-09T13:28:46;6.90;;;4.90;;
13122;SDS011;6627;50.920;12.050;2023-07-09T13:31:16;5.85;;;4.93;;
13122;SDS011;6627;50.920;12.050;2023-07-09T13:33:50;6.75;;;5.07;;
13122;SDS011;6627;50.920;12.050;2023-07-09T13:36:23;5.15;;;4.50;;
13122;SDS011;6627;50.920;12.050;2023-07-09T13:38:51;7.05;;;4.82;;
13122;SDS011;6627;50.920;12.050;2023-07-09T13:41:19;5.25;;;4.75;;
13122;SDS011;6627;50.920;12.050;2023-07-09T13:43:48;7.40;;;5.03;;
13122;SDS011;6627;50.920;12.050;2023-07-09T13:46:16;6.30;;;4.82;;
13122;SDS011;6627;50.920;12.050;2023-07-09T13:48:44;5.28;;;4.78;;
13122;SDS011;6627;50.920;12.050;2023-07-09T13:51:16;5.22;;;4.80;;
13122;SDS011;6627;50.920;12.050;2023-07-09T13:53:47;5.60;;;5.05;;
13122;SDS011;6627;50.920;12.050;2023-07-09T13:56:19;9.13;;;5.70;;
13122;SDS011;6627;50.920;12.050;2023-07-09T13:58:47;5.78;;;4.88;;
13122;SDS011;6627;50.920;12.050;2023-07-09T14:01:16;6.15;;;4.95;;
13122;SDS011;6627;50.920;12.050;2023-07-09T14:03:49;6.13;;;4.90;;
13122;SDS011;6627;50.920;12.050;2023-07-09T14:06:24;5.22;;;4.47;;
13122;SDS011;6627;50.920;12.050;2023-07-09T14:08:53;5.80;;;5.13;;
13122;SDS011;6627;50.920;12.050;2023-07-09T14:11:20;6.45;;;5.35;;
13122;SDS011;6627;50.920;12.050;2023-07-09T14:13:47;6.75;;;5.20;;
13122;SDS011;6627;50.920;12.050;2023-07-09T14:16:14;5.68;;;4.95;;
13122;SDS011;6627;50.920;12.050;2023-07-09T14:18:43;5.47;;;4.93;;
13122;SDS011;6627;50.920;12.050;2023-07-09T14:21:11;5.55;;;4.72;;
13122;SDS011;6627;50.920;12.050;2023-07-09T14:23:40;5.85;;;5.00;;
13122;SDS011;6627;50.920;12.050;2023-07-09T14:26:09;6.25;;;4.88;;
13122;SDS011;6627;50.920;12.050;2023-07-09T14:28:37;6.28;;;5.05;;
13122;SDS011;6627;50.920;12.050;2023-07-09T14:31:04;7.20;;;5.68;;
13122;SDS011;6627;50.920;12.050;2023-07-09T14:33:48;7.28;;;5.30;;
13122;SDS011;6627;50.920;12.050;2023-07-09T14:36:15;7.82;;;5.15;;
13122;SDS011;6627;50.920;12.050;2023-07-09T14:38:43;7.18;;;5.60;;
13122;SDS011;6627;50.920;12.050;2023-07-09T14:41:17;6.60;;;4.32;;
13122;SDS011;6627;50.920;12.050;2023-07-09T14:43:48;5.88;;;5.22;;
13122;SDS011;6627;50.920;12.050;2023-07-09T14:46:15;5.82;;;4.85;;
13122;SDS011;6627;50.920;12.050;2023-07-09T14:48:43;5.93;;;4.72;;
13122;SDS011;6627;50.920;12.050;2023-07-09T14:51:14;5.80;;;4.93;;
13122;SDS011;6627;50.920;12.050;2023-07-09T14:53:43;5.78;;;4.85;;
13122;SDS011;6627;50.920;12.050;2023-07-09T14:56:12;5.68;;;5.03;;
13122;SDS011;6627;50.920;12.050;2023-07-09T14:58:42;6.47;;;5.07;;
13122;SDS011;6627;50.920;12.050;2023-07-09T15:01:10;8.88;;;5.32;;
13122;SDS011;6627;50.920;12.050;2023-07-09T15:03:39;6.75;;;5.05;;
13122;SDS011;6627;50.920;12.050;2023-07-09T15:06:06;7.97;;;5.43;;
13122;SDS011;6627;50.920;12.050;2023-07-09T15:08:33;5.85;;;5.15;;
13122;SDS011;6627;50.920;12.050;2023-07-09T15:11:00;7.00;;;5.03;;